createdAt,value
2023-03-21T00:01:06.895Z,4.88
2023-03-21T00:03:34.472Z,6.25
2023-03-21T00:06:08.662Z,6.18
2023-03-21T00:08:35.694Z,8.93
2023-03-21T00:11:04.344Z,8.52
2023-03-21T00:13:38.531Z,10.45
2023-03-21T00:16:15.241Z,9.15
2023-03-21T00:18:47.265Z,8.15
2023-03-21T00:24:03.651Z,7.63
2023-03-21T00:26:31.703Z,6.10
2023-03-21T00:28:58.612Z,6.88
2023-03-21T00:31:25.925Z,5.40
2023-03-21T00:33:52.883Z,4.10
2023-03-21T00:36:19.876Z,4.38
2023-03-21T00:38:46.676Z,5.55
2023-03-21T00:41:26.328Z,4.13
2023-03-21T00:44:02.371Z,4.55
2023-03-21T00:46:39.768Z,3.58
2023-03-21T00:49:09.566Z,3.65
2023-03-21T00:51:36.438Z,4.85
2023-03-21T00:54:06.034Z,5.07
2023-03-21T00:56:32.977Z,5.40
2023-03-21T00:58:59.923Z,5.80
2023-03-21T01:01:31.874Z,6.93
2023-03-21T01:04:07.752Z,6.13
2023-03-21T01:06:40.896Z,7.63
2023-03-21T01:09:13.168Z,7.50
2023-03-21T01:14:21.537Z,8.13
2023-03-21T01:16:50.327Z,6.40
2023-03-21T01:19:26.507Z,6.57
2023-03-21T01:21:56.721Z,11.10
2023-03-21T01:24:23.716Z,9.27
2023-03-21T01:26:50.726Z,7.90
2023-03-21T01:29:17.615Z,7.18
2023-03-21T01:31:44.590Z,6.78
2023-03-21T01:34:12.234Z,5.85
2023-03-21T01:36:39.311Z,7.60
2023-03-21T01:39:06.841Z,6.95
2023-03-21T01:41:43.447Z,7.95
2023-03-21T01:44:22.629Z,8.23
2023-03-21T01:47:11.403Z,7.78
2023-03-21T01:49:46.137Z,8.27
2023-03-21T01:52:29.814Z,10.23
2023-03-21T01:55:05.489Z,8.55
2023-03-21T01:57:45.201Z,7.72
2023-03-21T02:00:17.208Z,9.73
2023-03-21T02:03:20.941Z,9.07
2023-03-21T02:06:02.894Z,8.93
2023-03-21T02:08:39.263Z,9.55
2023-03-21T02:11:08.311Z,8.63
2023-03-21T02:13:36.418Z,8.43
2023-03-21T02:16:19.019Z,10.23
2023-03-21T02:19:14.005Z,11.43
2023-03-21T02:22:07.261Z,9.57
2023-03-21T02:25:01.548Z,12.85
2023-03-21T02:27:54.043Z,11.05
2023-03-21T02:30:49.164Z,8.65
2023-03-21T02:33:36.684Z,9.88
2023-03-21T02:36:27.784Z,9.27
2023-03-21T02:39:31.824Z,9.02
2023-03-21T02:42:09.538Z,7.85
2023-03-21T02:44:51.312Z,9.45
2023-03-21T02:47:52.872Z,8.43
2023-03-21T02:50:33.705Z,11.88
2023-03-21T02:53:01.471Z,7.65
2023-03-21T02:55:31.209Z,8.18
2023-03-21T02:58:06.971Z,7.60
2023-03-21T03:00:39.396Z,8.73
2023-03-21T03:03:09.903Z,10.00
2023-03-21T03:05:53.105Z,10.80
2023-03-21T03:08:59.768Z,9.20
2023-03-21T03:11:35.861Z,13.07
2023-03-21T03:14:38.587Z,8.20
2023-03-21T03:17:23.336Z,10.77
2023-03-21T03:20:16.550Z,9.00
2023-03-21T03:23:02.518Z,11.07
2023-03-21T03:25:43.253Z,10.10
2023-03-21T03:28:11.165Z,10.18
2023-03-21T03:30:46.539Z,11.98
2023-03-21T03:33:23.675Z,12.05
2023-03-21T03:36:04.365Z,10.20
2023-03-21T03:38:32.984Z,11.40
2023-03-21T03:41:03.662Z,10.45
2023-03-21T03:43:38.808Z,9.23
2023-03-21T03:46:12.377Z,11.07
2023-03-21T03:49:20.703Z,11.27
2023-03-21T03:51:57.933Z,13.18
2023-03-21T03:54:39.992Z,12.77
2023-03-21T03:57:07.533Z,12.13
2023-03-21T03:59:36.401Z,11.98
2023-03-21T04:02:05.267Z,13.65
2023-03-21T04:04:32.279Z,11.23
2023-03-21T04:06:59.164Z,13.32
2023-03-21T04:09:41.178Z,12.38
2023-03-21T04:12:10.812Z,13.55
2023-03-21T04:14:44.453Z,12.40
2023-03-21T04:17:15.559Z,13.40
2023-03-21T04:19:42.787Z,12.98
2023-03-21T04:22:09.591Z,14.15
2023-03-21T04:24:37.572Z,18.42
2023-03-21T04:27:08.127Z,12.35
2023-03-21T04:29:34.948Z,12.93
2023-03-21T04:32:01.880Z,11.27
2023-03-21T04:34:29.019Z,11.82
2023-03-21T04:36:56.501Z,10.60
2023-03-21T04:39:24.783Z,13.15
2023-03-21T04:41:51.890Z,15.55
2023-03-21T04:44:18.903Z,15.38
2023-03-21T04:46:45.984Z,17.30
2023-03-21T04:49:12.892Z,20.42
2023-03-21T04:51:40.520Z,16.38
2023-03-21T04:56:35.673Z,16.85
2023-03-21T04:59:07.356Z,15.57
2023-03-21T05:01:34.237Z,14.93
2023-03-21T05:04:02.254Z,19.25
2023-03-21T05:06:30.029Z,16.58
2023-03-21T05:09:01.668Z,13.38
2023-03-21T05:11:30.968Z,13.43
2023-03-21T05:13:58.947Z,18.80
2023-03-21T05:16:30.645Z,17.80
2023-03-21T05:18:59.237Z,17.83
2023-03-21T05:21:29.595Z,17.15
2023-03-21T05:23:58.432Z,17.30
2023-03-21T05:26:25.546Z,15.23
2023-03-21T05:28:55.885Z,16.23
2023-03-21T05:31:22.933Z,17.48
2023-03-21T05:33:49.809Z,19.65
2023-03-21T05:36:16.622Z,24.02
2023-03-21T05:38:45.778Z,17.02
2023-03-21T05:41:14.477Z,21.15
2023-03-21T05:43:41.814Z,17.70
2023-03-21T05:46:09.440Z,17.95
2023-03-21T05:48:36.596Z,15.15
2023-03-21T05:51:04.364Z,16.88
2023-03-21T05:53:31.329Z,14.82
2023-03-21T05:55:58.102Z,16.90
2023-03-21T05:58:24.933Z,14.20
2023-03-21T06:00:51.747Z,15.65
2023-03-21T06:03:18.684Z,14.63
2023-03-21T06:05:45.607Z,11.57
2023-03-21T06:08:13.101Z,12.95
2023-03-21T06:10:43.094Z,14.35
2023-03-21T06:13:09.993Z,13.68
2023-03-21T06:15:37.236Z,13.50
2023-03-21T06:18:04.257Z,13.63
2023-03-21T06:20:31.229Z,12.75
2023-03-21T06:22:58.086Z,11.65
2023-03-21T06:25:24.896Z,13.57
2023-03-21T06:27:51.686Z,13.10
2023-03-21T06:30:18.950Z,12.15
2023-03-21T06:32:45.779Z,14.27
2023-03-21T06:35:12.655Z,12.25
2023-03-21T06:37:39.520Z,13.18
2023-03-21T06:40:08.080Z,14.95
2023-03-21T06:42:34.923Z,18.27
2023-03-21T06:45:01.860Z,14.13
2023-03-21T06:47:28.712Z,13.57
2023-03-21T06:49:55.591Z,12.75
2023-03-21T06:52:22.351Z,11.00
2023-03-21T06:54:49.258Z,12.02
2023-03-21T06:57:16.205Z,9.88
2023-03-21T06:59:43.082Z,8.15
2023-03-21T07:02:13.021Z,9.10
2023-03-21T07:04:39.945Z,9.75
2023-03-21T07:07:06.829Z,14.40
2023-03-21T07:09:33.737Z,8.93
2023-03-21T07:12:00.751Z,9.73
2023-03-21T07:14:27.626Z,8.07
2023-03-21T07:16:54.475Z,10.15
2023-03-21T07:19:21.352Z,9.73
2023-03-21T07:21:48.224Z,8.05
2023-03-21T07:24:15.211Z,9.05
2023-03-21T07:26:42.213Z,8.90
2023-03-21T07:29:09.121Z,6.90
2023-03-21T07:31:36.807Z,7.03
2023-03-21T07:34:03.694Z,8.05
2023-03-21T07:36:30.728Z,8.30
2023-03-21T07:38:57.613Z,9.10
2023-03-21T07:41:24.642Z,7.75
2023-03-21T07:43:51.514Z,7.72
2023-03-21T07:46:18.414Z,7.80
2023-03-21T07:48:45.507Z,12.70
2023-03-21T07:51:12.402Z,12.32
2023-03-21T07:53:41.895Z,10.50
2023-03-21T07:56:09.087Z,8.70
2023-03-21T07:58:35.972Z,8.38
2023-03-21T08:01:02.892Z,9.63
2023-03-21T08:03:31.053Z,9.73
2023-03-21T08:06:00.107Z,10.32
2023-03-21T08:08:27.943Z,7.25
2023-03-21T08:10:54.901Z,7.45
2023-03-21T08:13:21.784Z,7.95
2023-03-21T08:15:48.653Z,7.47
2023-03-21T08:18:15.548Z,7.40
2023-03-21T08:20:45.053Z,6.50
2023-03-21T08:23:11.899Z,8.32
2023-03-21T08:25:39.450Z,7.57
2023-03-21T08:28:06.401Z,8.32
2023-03-21T08:30:33.390Z,10.05
2023-03-21T08:33:01.779Z,14.90
2023-03-21T08:35:29.553Z,13.18
2023-03-21T08:37:56.361Z,7.13
2023-03-21T08:40:23.218Z,6.28
2023-03-21T08:42:50.112Z,5.18
2023-03-21T08:45:18.500Z,4.30
2023-03-21T08:47:46.394Z,4.28
2023-03-21T08:50:16.616Z,4.70
2023-03-21T08:52:43.777Z,4.90
2023-03-21T08:55:11.563Z,6.18
2023-03-21T08:57:38.679Z,4.78
2023-03-21T09:00:14.041Z,5.47
2023-03-21T09:02:49.429Z,6.45
2023-03-21T09:05:17.066Z,5.60
2023-03-21T09:07:45.034Z,8.13
2023-03-21T09:10:22.650Z,6.63
2023-03-21T09:12:51.664Z,5.00
2023-03-21T09:15:20.543Z,4.45
2023-03-21T09:17:53.002Z,3.00
2023-03-21T09:20:26.354Z,3.08
2023-03-21T09:22:53.864Z,3.58
2023-03-21T09:25:21.640Z,4.00
2023-03-21T09:27:50.073Z,1.95
2023-03-21T09:30:20.779Z,2.20
2023-03-21T09:32:48.745Z,2.97
2023-03-21T09:35:19.673Z,2.75
2023-03-21T09:37:48.264Z,2.15
2023-03-21T09:40:48.582Z,2.33
2023-03-21T09:43:32.146Z,2.80
2023-03-21T09:46:03.033Z,2.58
2023-03-21T09:48:54.329Z,2.45
2023-03-21T09:51:23.829Z,1.60
2023-03-21T09:53:52.048Z,2.58
2023-03-21T09:56:19.166Z,1.90
2023-03-21T09:58:54.714Z,4.60
2023-03-21T10:01:28.487Z,4.55
2023-03-21T10:03:56.725Z,3.67
2023-03-21T10:06:31.848Z,4.55
2023-03-21T10:09:06.653Z,4.75
2023-03-21T10:11:49.433Z,1.90
2023-03-21T10:14:24.279Z,3.40
2023-03-21T10:16:57.009Z,2.90
2023-03-21T10:19:24.688Z,2.38
2023-03-21T10:22:00.842Z,2.28
2023-03-21T10:24:29.304Z,2.40
2023-03-21T10:26:58.951Z,2.10
2023-03-21T10:29:38.131Z,2.33
2023-03-21T10:32:05.786Z,2.67
2023-03-21T10:34:46.953Z,2.33
2023-03-21T10:37:14.761Z,2.05
2023-03-21T10:39:46.706Z,2.05
2023-03-21T10:42:24.862Z,2.00
2023-03-21T10:44:54.289Z,2.92
2023-03-21T10:47:41.720Z,2.78
2023-03-21T10:50:13.387Z,8.30
2023-03-21T10:52:48.190Z,3.67
2023-03-21T10:55:19.419Z,3.67
2023-03-21T10:57:47.372Z,7.37
2023-03-21T11:00:21.452Z,3.50
2023-03-21T11:02:50.533Z,2.80
2023-03-21T11:05:36.938Z,3.65
2023-03-21T11:08:12.050Z,9.07
2023-03-21T11:10:53.539Z,4.63
2023-03-21T11:13:27.325Z,3.37
2023-03-21T11:16:04.156Z,3.22
2023-03-21T11:18:33.357Z,2.20
2023-03-21T11:21:08.764Z,2.13
2023-03-21T11:23:41.288Z,4.68
2023-03-21T11:26:17.246Z,3.05
2023-03-21T11:28:46.039Z,5.32
2023-03-21T11:31:13.397Z,3.67
2023-03-21T11:33:46.016Z,3.50
2023-03-21T11:36:19.009Z,3.35
2023-03-21T11:38:50.939Z,3.58
2023-03-21T11:41:34.120Z,3.30
2023-03-21T11:44:03.653Z,3.72
2023-03-21T11:46:32.189Z,2.58
2023-03-21T11:48:59.988Z,2.53
2023-03-21T11:52:00.895Z,5.25
2023-03-21T11:54:49.725Z,3.50
2023-03-21T11:57:31.584Z,3.53
2023-03-21T12:00:14.567Z,2.88
2023-03-21T12:03:05.832Z,3.75
2023-03-21T12:05:36.385Z,2.70
2023-03-21T12:08:13.126Z,2.25
2023-03-21T12:10:54.431Z,2.30
2023-03-21T12:14:00.043Z,4.05
2023-03-21T12:17:04.328Z,3.05
2023-03-21T12:20:02.084Z,4.25
2023-03-21T12:22:50.102Z,2.72
2023-03-21T12:25:27.894Z,4.05
2023-03-21T12:28:38.266Z,2.72
2023-03-21T12:31:32.850Z,2.80
2023-03-21T12:34:18.711Z,3.55
2023-03-21T12:36:55.472Z,3.78
2023-03-21T12:39:36.424Z,2.85
2023-03-21T12:42:25.446Z,2.53
2023-03-21T12:44:57.142Z,3.15
2023-03-21T12:47:26.843Z,2.03
2023-03-21T12:50:13.881Z,1.58
2023-03-21T12:52:43.644Z,1.88
2023-03-21T12:55:22.634Z,3.28
2023-03-21T12:57:57.472Z,2.33
2023-03-21T13:00:38.951Z,3.55
2023-03-21T13:03:12.989Z,7.40
2023-03-21T13:05:49.826Z,3.10
2023-03-21T13:08:22.185Z,2.67
2023-03-21T13:10:49.172Z,3.55
2023-03-21T13:13:39.667Z,3.10
2023-03-21T13:16:22.132Z,3.15
2023-03-21T13:19:12.163Z,3.22
2023-03-21T13:22:03.556Z,2.35
2023-03-21T13:24:38.593Z,2.60
2023-03-21T13:27:26.000Z,2.17
2023-03-21T13:30:00.088Z,1.83
2023-03-21T13:32:35.700Z,1.58
2023-03-21T13:35:10.042Z,3.25
2023-03-21T13:37:41.358Z,2.20
2023-03-21T13:40:44.084Z,1.60
2023-03-21T13:43:32.654Z,2.75
2023-03-21T13:46:11.435Z,4.35
2023-03-21T13:48:41.916Z,3.40
2023-03-21T13:51:11.543Z,2.97
2023-03-21T13:53:44.490Z,2.45
2023-03-21T13:56:17.474Z,4.47
2023-03-21T13:58:44.341Z,3.72
2023-03-21T14:01:14.323Z,3.33
2023-03-21T14:03:42.005Z,3.30
2023-03-21T14:06:09.371Z,4.93
2023-03-21T14:08:37.820Z,2.70
2023-03-21T14:11:07.949Z,2.40
2023-03-21T14:13:37.976Z,4.68
2023-03-21T14:16:17.997Z,2.70
2023-03-21T14:18:54.107Z,3.03
2023-03-21T14:21:30.428Z,7.05
2023-03-21T14:24:03.212Z,4.43
2023-03-21T14:26:35.679Z,4.10
2023-03-21T14:29:07.110Z,4.35
2023-03-21T14:31:34.472Z,2.40
2023-03-21T14:34:02.888Z,3.88
2023-03-21T14:36:32.962Z,2.88
2023-03-21T14:39:15.179Z,2.65
2023-03-21T14:41:53.797Z,4.00
2023-03-21T14:44:27.945Z,3.85
2023-03-21T14:47:01.800Z,3.22
2023-03-21T14:49:31.055Z,4.35
2023-03-21T14:52:07.254Z,5.68
2023-03-21T14:54:34.594Z,9.30
2023-03-21T14:57:08.840Z,5.43
2023-03-21T14:59:37.724Z,6.43
2023-03-21T15:02:23.975Z,6.47
2023-03-21T15:04:53.751Z,6.82
2023-03-21T15:07:25.009Z,5.40
2023-03-21T15:10:02.095Z,7.43
2023-03-21T15:12:29.214Z,4.85
2023-03-21T15:14:56.246Z,10.63
2023-03-21T15:17:24.966Z,6.82
2023-03-21T15:19:51.824Z,6.40
2023-03-21T15:22:34.236Z,5.07
2023-03-21T15:27:32.619Z,5.78
2023-03-21T15:29:59.513Z,6.88
2023-03-21T15:32:28.855Z,5.60
2023-03-21T15:35:04.179Z,7.60
2023-03-21T15:37:34.847Z,7.93
2023-03-21T15:40:29.227Z,11.10
2023-03-21T15:43:16.552Z,10.00
2023-03-21T15:45:57.279Z,8.02
2023-03-21T15:48:28.913Z,5.88
2023-03-21T15:50:56.407Z,7.32
2023-03-21T15:53:23.792Z,7.75
2023-03-21T15:55:53.111Z,6.53
2023-03-21T15:58:24.033Z,6.88
2023-03-21T16:00:56.284Z,14.13
2023-03-21T16:03:26.460Z,11.88
2023-03-21T16:06:16.463Z,9.30
2023-03-21T16:08:46.265Z,15.93
2023-03-21T16:11:24.626Z,8.88
2023-03-21T16:13:56.017Z,7.72
2023-03-21T16:16:27.471Z,5.60
2023-03-21T16:18:56.238Z,11.10
2023-03-21T16:21:26.695Z,9.63
2023-03-21T16:23:53.566Z,14.23
2023-03-21T16:26:26.363Z,8.98
2023-03-21T16:28:53.880Z,9.38
2023-03-21T16:31:23.465Z,8.32
2023-03-21T16:33:51.358Z,10.23
2023-03-21T16:36:24.567Z,17.70
2023-03-21T16:38:55.124Z,14.63
2023-03-21T16:41:27.655Z,23.67
2023-03-21T16:43:54.717Z,23.52
2023-03-21T16:46:23.786Z,30.25
2023-03-21T16:48:55.699Z,28.42
2023-03-21T16:51:29.807Z,21.75
2023-03-21T16:53:57.906Z,22.48
2023-03-21T16:56:31.081Z,24.48
2023-03-21T16:58:58.212Z,22.95
2023-03-21T17:01:30.240Z,28.63
2023-03-21T17:04:00.306Z,35.80
2023-03-21T17:06:29.588Z,22.55
2023-03-21T17:08:57.822Z,26.42
2023-03-21T17:11:26.600Z,21.80
2023-03-21T17:13:54.815Z,28.05
2023-03-21T17:16:26.463Z,28.02
2023-03-21T17:18:53.727Z,27.80
2023-03-21T17:21:28.942Z,25.17
2023-03-21T17:23:56.399Z,31.17
2023-03-21T17:26:28.486Z,30.75
2023-03-21T17:28:57.055Z,26.83
2023-03-21T17:31:25.426Z,25.50
2023-03-21T17:33:52.378Z,30.23
2023-03-21T17:36:30.496Z,30.10
2023-03-21T17:38:57.958Z,41.58
2023-03-21T17:41:26.183Z,38.80
2023-03-21T17:43:53.642Z,40.22
2023-03-21T17:46:22.513Z,41.15
2023-03-21T17:48:50.009Z,48.67
2023-03-21T17:51:17.763Z,56.53
2023-03-21T17:53:46.349Z,55.65
2023-03-21T17:56:23.209Z,57.30
2023-03-21T17:58:50.002Z,59.17
2023-03-21T18:01:16.914Z,62.10
2023-03-21T18:03:44.577Z,66.47
2023-03-21T18:06:19.701Z,66.28
2023-03-21T18:08:47.447Z,72.35
2023-03-21T18:11:14.636Z,67.85
2023-03-21T18:13:43.028Z,67.63
2023-03-21T18:16:21.755Z,70.28
2023-03-21T18:18:49.490Z,57.05
2023-03-21T18:21:19.621Z,64.28
2023-03-21T18:23:47.866Z,62.17
2023-03-21T18:26:23.744Z,54.58
2023-03-21T18:29:41.928Z,38.47
2023-03-21T18:31:39.091Z,44.92
2023-03-21T18:34:06.271Z,46.97
2023-03-21T18:36:33.665Z,42.70
2023-03-21T18:39:02.690Z,40.63
2023-03-21T18:41:29.576Z,42.92
2023-03-21T18:44:02.345Z,43.83
2023-03-21T18:46:36.941Z,37.17
2023-03-21T18:49:33.708Z,56.13
2023-03-21T18:51:52.611Z,35.40
2023-03-21T18:54:20.616Z,43.55
2023-03-21T18:57:33.883Z,41.10
2023-03-21T18:59:39.349Z,30.80
2023-03-21T19:02:06.711Z,37.35
2023-03-21T19:04:34.313Z,32.15
2023-03-21T19:07:01.420Z,39.55
2023-03-21T19:09:32.008Z,41.75
2023-03-21T19:12:00.748Z,37.58
2023-03-21T19:14:28.039Z,38.42
2023-03-21T19:17:47.197Z,47.78
2023-03-21T19:19:43.752Z,33.83
2023-03-21T19:22:11.368Z,36.47
2023-03-21T19:24:39.679Z,37.28
2023-03-21T19:27:07.224Z,36.55
2023-03-21T19:29:34.277Z,36.55
2023-03-21T19:32:01.127Z,36.28
2023-03-21T19:34:30.496Z,32.38
2023-03-21T19:36:57.626Z,32.63
2023-03-21T19:39:25.188Z,33.03
2023-03-21T19:41:55.477Z,37.70
2023-03-21T19:44:30.980Z,32.80
2023-03-21T19:46:57.951Z,31.40
2023-03-21T19:49:37.066Z,34.33
2023-03-21T19:52:13.499Z,37.60
2023-03-21T19:54:40.376Z,37.53
2023-03-21T19:57:09.704Z,37.28
2023-03-21T19:59:36.744Z,35.08
2023-03-21T20:02:25.646Z,31.88
2023-03-21T20:04:52.694Z,34.17
2023-03-21T20:07:19.991Z,38.10
2023-03-21T20:09:52.859Z,37.78
2023-03-21T20:12:21.999Z,40.00
2023-03-21T20:14:49.245Z,41.97
2023-03-21T20:17:16.919Z,35.88
2023-03-21T20:19:43.906Z,38.30
2023-03-21T20:22:21.939Z,33.92
2023-03-21T20:24:54.888Z,36.92
2023-03-21T20:27:25.183Z,42.85
2023-03-21T20:30:10.044Z,43.65
2023-03-21T20:32:42.300Z,44.03
2023-03-21T20:35:20.702Z,47.33
2023-03-21T20:40:20.849Z,46.63
2023-03-21T20:42:48.979Z,41.60
2023-03-21T20:45:16.894Z,44.15
2023-03-21T20:47:44.176Z,42.30
2023-03-21T20:50:13.919Z,48.63
2023-03-21T20:53:06.587Z,42.53
2023-03-21T20:55:29.319Z,39.55
2023-03-21T20:57:56.187Z,37.80
2023-03-21T21:00:23.185Z,38.78
2023-03-21T21:02:50.752Z,51.92
2023-03-21T21:05:35.505Z,46.60
2023-03-21T21:08:03.666Z,46.78
2023-03-21T21:10:33.577Z,44.58
2023-03-21T21:13:00.827Z,45.25
2023-03-21T21:15:28.252Z,45.38
2023-03-21T21:18:06.140Z,47.35
2023-03-21T21:20:34.430Z,44.90
2023-03-21T21:23:01.340Z,50.35
2023-03-21T21:25:30.572Z,47.50
2023-03-21T21:27:57.615Z,60.42
2023-03-21T21:30:25.003Z,49.67
2023-03-21T21:32:51.860Z,45.70
2023-03-21T21:35:20.677Z,52.40
2023-03-21T21:37:47.787Z,47.30
2023-03-21T21:40:20.392Z,53.78
2023-03-21T21:42:47.641Z,42.67
2023-03-21T21:45:14.691Z,60.13
2023-03-21T21:47:43.485Z,43.00
2023-03-21T21:50:10.774Z,46.47
2023-03-21T21:52:37.912Z,47.08
2023-03-21T21:55:06.505Z,49.00
2023-03-21T21:57:34.773Z,48.55
2023-03-21T22:00:12.871Z,46.03
2023-03-21T22:02:40.929Z,45.92
2023-03-21T22:05:09.057Z,46.97
2023-03-21T22:07:37.527Z,53.90
2023-03-21T22:10:05.332Z,48.03
2023-03-21T22:12:32.393Z,50.67
2023-03-21T22:14:59.238Z,60.78
2023-03-21T22:17:26.290Z,52.53
2023-03-21T22:20:05.237Z,54.20
2023-03-21T22:22:36.745Z,53.47
2023-03-21T22:25:08.458Z,51.65
2023-03-21T22:27:35.656Z,56.05
2023-03-21T22:30:07.633Z,49.92
2023-03-21T22:32:35.940Z,53.53
2023-03-21T22:35:03.148Z,55.88
2023-03-21T22:37:31.481Z,54.38
2023-03-21T22:39:58.741Z,54.15
2023-03-21T22:42:26.148Z,56.15
2023-03-21T22:44:52.958Z,58.03
2023-03-21T22:47:20.181Z,64.82
2023-03-21T22:49:47.126Z,60.92
2023-03-21T22:52:14.611Z,59.75
2023-03-21T22:54:41.471Z,55.20
2023-03-21T22:57:13.664Z,64.70
2023-03-21T23:02:09.690Z,60.95
2023-03-21T23:04:37.053Z,62.03
2023-03-21T23:07:05.208Z,57.25
2023-03-21T23:09:32.151Z,57.00
2023-03-21T23:11:59.045Z,55.75
2023-03-21T23:14:26.288Z,44.03
2023-03-21T23:16:53.489Z,49.05
2023-03-21T23:19:21.331Z,49.45
2023-03-21T23:21:49.624Z,42.45
2023-03-21T23:24:16.558Z,45.70
2023-03-21T23:26:43.450Z,50.58
2023-03-21T23:29:11.056Z,51.83
2023-03-21T23:31:38.052Z,50.63
2023-03-21T23:34:05.417Z,52.28
2023-03-21T23:36:32.357Z,55.10
2023-03-21T23:38:59.397Z,57.03
2023-03-21T23:41:26.515Z,52.90
2023-03-21T23:43:55.898Z,53.38
2023-03-21T23:46:22.955Z,55.95
2023-03-21T23:48:50.016Z,48.17
2023-03-21T23:51:18.321Z,53.60
2023-03-21T23:53:46.520Z,58.55
2023-03-21T23:56:19.062Z,52.88
2023-03-21T23:58:46.539Z,59.70
